createdAt,value
2022-12-18T00:01:32.418Z,99436.06
2022-12-18T00:03:59.336Z,99440.34
2022-12-18T00:06:28.163Z,99438.72
2022-12-18T00:08:57.402Z,99437.88
2022-12-18T00:11:27.288Z,99446.34
2022-12-18T00:13:55.351Z,99443.84
2022-12-18T00:16:23.889Z,99467.53
2022-12-18T00:18:52.950Z,99459.75
2022-12-18T00:21:20.760Z,99466.50
2022-12-18T00:23:48.743Z,99474.97
2022-12-18T00:26:21.146Z,99463.97
2022-12-18T00:28:50.602Z,99469.84
2022-12-18T00:31:20.347Z,99469.06
2022-12-18T00:33:47.569Z,99475.94
2022-12-18T00:36:22.330Z,99481.88
2022-12-18T00:38:49.909Z,99477.63
2022-12-18T00:41:38.883Z,99482.69
2022-12-18T00:44:07.117Z,99481.06
2022-12-18T00:46:34.108Z,99486.25
2022-12-18T00:49:00.907Z,99486.25
2022-12-18T00:51:27.850Z,99487.78
2022-12-18T00:53:54.998Z,99496.25
2022-12-18T00:56:21.736Z,99490.25
2022-12-18T00:58:48.376Z,99497.88
2022-12-18T01:01:15.279Z,99500.44
2022-12-18T01:03:42.343Z,99497.09
2022-12-18T01:06:12.660Z,99508.06
2022-12-18T01:08:39.851Z,99497.06
2022-12-18T01:11:16.578Z,99513.13
2022-12-18T01:13:43.745Z,99509.66
2022-12-18T01:16:16.758Z,99510.59
2022-12-18T01:18:43.573Z,99518.31
2022-12-18T01:21:13.389Z,99521.63
2022-12-18T01:23:40.667Z,99519.94
2022-12-18T01:26:10.111Z,99527.47
2022-12-18T01:28:37.579Z,99529.09
2022-12-18T01:31:11.630Z,99534.38
2022-12-18T01:33:38.671Z,99535.38
2022-12-18T01:36:07.002Z,99537.13
2022-12-18T01:38:33.647Z,99552.34
2022-12-18T01:41:01.443Z,99550.59
2022-12-18T01:43:57.959Z,99553.94
2022-12-18T01:46:25.165Z,99553.94
2022-12-18T01:48:56.504Z,99548.84
2022-12-18T01:51:25.162Z,99550.47
2022-12-18T01:53:51.841Z,99558.19
2022-12-18T01:56:20.729Z,99559.00
2022-12-18T01:59:04.934Z,99564.06
2022-12-18T02:01:33.697Z,99559.00
2022-12-18T02:04:23.064Z,99552.22
2022-12-18T02:07:00.619Z,99558.03
2022-12-18T02:09:45.562Z,99552.97
2022-12-18T02:12:35.126Z,99545.34
2022-12-18T02:15:35.097Z,99546.22
2022-12-18T02:18:12.383Z,99550.53
2022-12-18T02:20:49.560Z,99548.75
2022-12-18T02:23:34.753Z,99556.38
2022-12-18T02:26:19.827Z,99553.03
2022-12-18T02:28:55.378Z,99537.94
2022-12-18T02:31:29.231Z,99552.31
2022-12-18T02:33:59.993Z,99563.22
2022-12-18T02:36:30.076Z,99565.72
2022-12-18T02:38:59.905Z,99572.53
2022-12-18T02:41:27.282Z,99569.13
2022-12-18T02:43:58.803Z,99573.38
2022-12-18T02:46:31.170Z,99575.09
2022-12-18T02:49:29.842Z,99570.94
2022-12-18T02:52:13.043Z,99581.13
2022-12-18T02:54:51.982Z,99584.53
2022-12-18T02:57:35.814Z,99585.34
2022-12-18T03:00:19.943Z,99585.25
2022-12-18T03:02:58.547Z,99586.94
2022-12-18T03:05:45.061Z,99586.13
2022-12-18T03:08:18.987Z,99594.63
2022-12-18T03:11:02.903Z,99593.75
2022-12-18T03:13:40.279Z,99598.81
2022-12-18T03:16:11.064Z,99605.56
2022-12-18T03:19:07.643Z,99600.50
2022-12-18T03:21:43.031Z,99597.13
2022-12-18T03:24:11.127Z,99607.34
2022-12-18T03:26:42.256Z,99602.25
2022-12-18T03:29:16.447Z,99606.44
2022-12-18T03:31:46.439Z,99607.31
2022-12-18T03:34:22.952Z,99603.06
2022-12-18T03:36:50.030Z,99611.56
2022-12-18T03:39:16.738Z,99602.19
2022-12-18T03:42:05.232Z,99606.47
2022-12-18T03:44:54.483Z,99616.72
2022-12-18T03:47:35.863Z,99609.94
2022-12-18T03:50:26.547Z,99623.47
2022-12-18T03:53:16.970Z,99620.06
2022-12-18T03:55:46.863Z,99616.72
2022-12-18T03:58:19.524Z,99628.56
2022-12-18T04:01:00.658Z,99629.38
2022-12-18T04:03:29.728Z,99631.88
2022-12-18T04:06:00.334Z,99636.13
2022-12-18T04:08:29.185Z,99634.47
2022-12-18T04:11:05.600Z,99625.94
2022-12-18T04:13:37.453Z,99635.28
2022-12-18T04:16:08.408Z,99640.38
2022-12-18T04:18:35.276Z,99644.63
2022-12-18T04:21:03.478Z,99646.31
2022-12-18T04:23:30.408Z,99653.97
2022-12-18T04:25:59.242Z,99658.19
2022-12-18T04:28:44.419Z,99663.28
2022-12-18T04:31:12.417Z,99667.47
2022-12-18T04:33:40.136Z,99671.75
2022-12-18T04:36:07.807Z,99667.50
2022-12-18T04:38:35.080Z,99663.25
2022-12-18T04:41:09.182Z,99672.56
2022-12-18T04:43:36.714Z,99664.19
2022-12-18T04:46:07.445Z,99675.22
2022-12-18T04:48:34.464Z,99677.78
2022-12-18T04:51:02.943Z,99682.84
2022-12-18T04:53:29.639Z,99682.78
2022-12-18T04:56:06.352Z,99690.31
2022-12-18T04:58:33.100Z,99697.88
2022-12-18T05:00:59.828Z,99692.78
2022-12-18T05:03:26.625Z,99697.06
2022-12-18T05:05:53.396Z,99702.16
2022-12-18T05:08:20.146Z,99710.63
2022-12-18T05:10:46.868Z,99714.94
2022-12-18T05:13:13.497Z,99701.38
2022-12-18T05:15:40.232Z,99705.66
2022-12-18T05:18:07.004Z,99710.63
2022-12-18T05:20:33.658Z,99705.59
2022-12-18T05:23:00.298Z,99704.72
2022-12-18T05:25:27.720Z,99704.75
2022-12-18T05:27:55.131Z,99714.03
2022-12-18T05:30:21.750Z,99725.06
2022-12-18T05:32:48.355Z,99720.84
2022-12-18T05:35:14.920Z,99736.13
2022-12-18T05:37:43.446Z,99730.19
2022-12-18T05:40:11.203Z,99736.97
2022-12-18T05:42:38.255Z,99748.03
2022-12-18T05:45:05.943Z,99736.19
2022-12-18T05:47:32.651Z,99740.41
2022-12-18T05:49:59.290Z,99737.84
2022-12-18T05:52:25.929Z,99741.22
2022-12-18T05:54:52.606Z,99726.88
2022-12-18T05:57:19.315Z,99742.88
2022-12-18T05:59:45.915Z,99743.72
2022-12-18T06:02:12.678Z,99750.50
2022-12-18T06:04:39.363Z,99756.47
2022-12-18T06:07:06.153Z,99758.19
2022-12-18T06:09:33.358Z,99757.34
2022-12-18T06:12:00.111Z,99760.69
2022-12-18T06:14:26.823Z,99765.78
2022-12-18T06:16:53.532Z,99770.00
2022-12-18T06:19:20.093Z,99765.69
2022-12-18T06:21:47.749Z,99775.03
2022-12-18T06:24:14.366Z,99775.88
2022-12-18T06:26:41.084Z,99775.84
2022-12-18T06:29:07.843Z,99781.81
2022-12-18T06:31:34.668Z,99785.25
2022-12-18T06:34:03.765Z,99795.38
2022-12-18T06:36:30.644Z,99790.31
2022-12-18T06:38:57.901Z,99801.34
2022-12-18T06:41:24.821Z,99792.06
2022-12-18T06:43:52.855Z,99796.31
2022-12-18T06:46:22.475Z,99802.31
2022-12-18T06:48:50.841Z,99803.13
2022-12-18T06:51:19.849Z,99798.88
2022-12-18T06:53:46.570Z,99812.41
2022-12-18T06:56:13.296Z,99814.91
2022-12-18T06:58:40.350Z,99817.44
2022-12-18T07:01:10.269Z,99818.34
2022-12-18T07:03:38.559Z,99820.91
2022-12-18T07:06:05.670Z,99825.09
2022-12-18T07:08:33.539Z,99827.66
2022-12-18T07:11:00.441Z,99840.34
2022-12-18T07:13:27.727Z,99839.50
2022-12-18T07:15:54.501Z,99843.75
2022-12-18T07:18:21.212Z,99851.38
2022-12-18T07:20:47.824Z,99860.66
2022-12-18T07:23:15.611Z,99864.88
2022-12-18T07:25:42.323Z,99871.69
2022-12-18T07:28:14.157Z,99865.78
2022-12-18T07:30:44.086Z,99873.44
2022-12-18T07:33:10.730Z,99889.53
2022-12-18T07:35:40.518Z,99883.63
2022-12-18T07:38:07.399Z,99887.84
2022-12-18T07:40:34.018Z,99899.69
2022-12-18T07:43:00.647Z,99902.22
2022-12-18T07:45:27.332Z,99902.22
2022-12-18T07:47:56.986Z,99906.47
2022-12-18T07:50:24.942Z,99916.63
2022-12-18T07:52:51.566Z,99914.91
2022-12-18T07:55:18.075Z,99923.38
2022-12-18T07:57:54.311Z,99921.72
2022-12-18T08:00:24.411Z,99923.38
2022-12-18T08:02:51.237Z,99930.16
2022-12-18T08:05:18.351Z,99924.19
2022-12-18T08:07:45.098Z,99925.84
2022-12-18T08:10:11.807Z,99932.63
2022-12-18T08:12:38.549Z,99925.03
2022-12-18T08:15:05.728Z,99938.56
2022-12-18T08:17:32.966Z,99937.72
2022-12-18T08:19:59.718Z,99934.34
2022-12-18T08:22:26.798Z,99941.13
2022-12-18T08:24:53.446Z,99948.75
2022-12-18T08:27:29.406Z,99950.41
2022-12-18T08:29:57.818Z,99952.97
2022-12-18T08:32:25.757Z,99948.72
2022-12-18T08:34:52.500Z,99949.53
2022-12-18T08:37:19.530Z,99957.19
2022-12-18T08:39:46.370Z,99953.78
2022-12-18T08:42:31.200Z,99960.56
2022-12-18T08:44:57.862Z,99961.38
2022-12-18T08:47:24.472Z,99962.22
2022-12-18T08:49:51.085Z,99960.47
2022-12-18T08:52:17.734Z,99964.72
2022-12-18T08:54:44.440Z,99963.91
2022-12-18T08:57:11.073Z,99964.75
2022-12-18T08:59:37.807Z,99974.09
2022-12-18T09:02:04.625Z,99969.84
2022-12-18T09:04:31.445Z,99979.97
2022-12-18T09:06:58.069Z,99981.69
2022-12-18T09:09:24.745Z,99988.44
2022-12-18T09:11:51.314Z,99985.03
2022-12-18T09:14:18.026Z,99980.81
2022-12-18T09:16:44.852Z,99974.88
2022-12-18T09:19:11.977Z,99981.66
2022-12-18T09:21:42.119Z,99970.66
2022-12-18T09:24:14.740Z,99985.91
2022-12-18T09:26:41.551Z,99987.59
2022-12-18T09:29:10.125Z,99992.66
2022-12-18T09:31:37.770Z,99993.50
2022-12-18T09:34:07.692Z,99988.41
2022-12-18T09:36:34.590Z,99977.41
2022-12-18T09:39:06.308Z,99988.44
2022-12-18T09:41:56.911Z,99991.81
2022-12-18T09:44:31.494Z,99991.81
2022-12-18T09:47:13.653Z,99976.53
2022-12-18T09:49:46.150Z,99987.53
2022-12-18T09:52:16.751Z,99984.13
2022-12-18T09:54:49.134Z,99983.28
2022-12-18T09:57:24.276Z,99986.69
2022-12-18T10:00:17.403Z,99983.25
2022-12-18T10:02:44.285Z,99976.50
2022-12-18T10:05:17.973Z,99974.00
2022-12-18T10:08:03.542Z,99976.53
2022-12-18T10:10:47.502Z,99974.81
2022-12-18T10:13:44.811Z,99971.34
2022-12-18T10:16:20.590Z,99979.88
2022-12-18T10:19:09.993Z,99976.47
2022-12-18T10:21:43.281Z,99968.81
2022-12-18T10:24:34.931Z,99977.31
2022-12-18T10:27:16.026Z,99967.94
2022-12-18T10:29:44.794Z,99956.84
2022-12-18T10:32:29.680Z,99950.03
2022-12-18T10:35:00.720Z,99950.88
2022-12-18T10:37:30.618Z,99960.19
2022-12-18T10:40:18.452Z,99960.91
2022-12-18T10:43:05.387Z,99965.97
2022-12-18T10:45:34.011Z,99968.47
2022-12-18T10:48:01.468Z,99969.31
2022-12-18T10:51:01.679Z,99969.25
2022-12-18T10:53:24.824Z,99963.28
2022-12-18T10:55:55.844Z,99957.22
2022-12-18T10:58:32.509Z,99962.31
2022-12-18T11:01:17.225Z,99960.59
2022-12-18T11:04:01.666Z,99963.97
2022-12-18T11:06:29.543Z,99962.25
2022-12-18T11:09:20.996Z,99963.91
2022-12-18T11:11:57.032Z,99964.72
2022-12-18T11:14:27.325Z,99957.91
2022-12-18T11:17:25.386Z,99969.72
2022-12-18T11:19:43.358Z,99964.72
2022-12-18T11:22:22.433Z,99975.66
2022-12-18T11:28:26.080Z,99969.56
2022-12-18T11:31:23.825Z,99964.34
2022-12-18T11:34:34.402Z,99954.91
2022-12-18T11:36:54.326Z,99949.75
2022-12-18T11:39:31.441Z,99948.88
2022-12-18T11:42:14.393Z,99956.53
2022-12-18T11:44:49.633Z,99954.75
2022-12-18T11:47:34.520Z,99957.22
2022-12-18T11:50:03.707Z,99950.31
2022-12-18T11:52:39.373Z,99944.38
2022-12-18T11:55:13.578Z,99945.31
2022-12-18T11:57:54.296Z,99935.06
2022-12-18T12:00:22.912Z,99924.09
2022-12-18T12:03:44.544Z,99915.50
2022-12-18T12:06:32.814Z,99917.09
2022-12-18T12:09:25.238Z,99914.38
2022-12-18T12:12:03.982Z,99913.34
2022-12-18T12:14:43.156Z,99914.06
2022-12-18T12:17:15.925Z,99905.63
2022-12-18T12:20:04.427Z,99911.44
2022-12-18T12:22:52.727Z,99908.78
2022-12-18T12:25:41.609Z,99892.59
2022-12-18T12:28:34.949Z,99899.31
2022-12-18T12:31:16.833Z,99897.72
2022-12-18T12:34:00.775Z,99901.03
2022-12-18T12:36:46.065Z,99904.56
2022-12-18T12:39:18.777Z,99907.84
2022-12-18T12:42:06.126Z,99898.47
2022-12-18T12:44:55.636Z,99887.53
2022-12-18T12:47:34.626Z,99890.00
2022-12-18T12:50:07.942Z,99885.72
2022-12-18T12:52:38.935Z,99886.63
2022-12-18T12:55:19.726Z,99878.84
2022-12-18T12:58:14.571Z,99875.44
2022-12-18T13:00:50.297Z,99880.47
2022-12-18T13:03:36.307Z,99883.06
2022-12-18T13:06:31.417Z,99889.75
2022-12-18T13:09:01.227Z,99885.47
2022-12-18T13:11:59.730Z,99888.00
2022-12-18T13:14:38.252Z,99882.03
2022-12-18T13:17:20.834Z,99880.31
2022-12-18T13:20:07.986Z,99877.00
2022-12-18T13:22:37.417Z,99862.69
2022-12-18T13:25:32.030Z,99866.00
2022-12-18T13:28:03.824Z,99859.84
2022-12-18T13:30:33.259Z,99856.16
2022-12-18T13:33:14.909Z,99851.03
2022-12-18T13:35:54.648Z,99850.97
2022-12-18T13:38:38.264Z,99856.13
2022-12-18T13:41:19.937Z,99851.00
2022-12-18T13:44:11.020Z,99850.81
2022-12-18T13:46:48.038Z,99847.56
2022-12-18T13:49:14.620Z,99846.63
2022-12-18T13:51:45.401Z,99843.34
2022-12-18T13:54:25.396Z,99855.94
2022-12-18T13:56:52.489Z,99858.41
2022-12-18T13:59:27.271Z,99852.34
2022-12-18T14:01:59.846Z,99854.75
2022-12-18T14:04:31.745Z,99859.88
2022-12-18T14:07:07.955Z,99871.78
2022-12-18T14:09:38.887Z,99866.81
2022-12-18T14:12:32.855Z,99862.38
2022-12-18T14:15:01.214Z,99870.84
2022-12-18T14:17:27.936Z,99869.84
2022-12-18T14:19:55.350Z,99867.44
2022-12-18T14:22:31.131Z,99876.75
2022-12-18T14:25:13.316Z,99874.22
2022-12-18T14:27:50.619Z,99875.06
2022-12-18T14:30:37.595Z,99878.53
2022-12-18T14:33:11.003Z,99878.53
2022-12-18T14:35:40.861Z,99878.44
2022-12-18T14:38:37.515Z,99884.34
2022-12-18T14:41:07.531Z,99876.84
2022-12-18T14:43:36.331Z,99885.28
2022-12-18T14:46:05.758Z,99882.00
2022-12-18T14:48:42.753Z,99882.03
2022-12-18T14:51:24.088Z,99889.69
2022-12-18T14:54:02.477Z,99887.94
2022-12-18T14:56:35.072Z,99890.69
2022-12-18T14:59:16.984Z,99893.31
2022-12-18T15:02:07.685Z,99880.13
2022-12-18T15:04:37.419Z,99901.34
2022-12-18T15:07:15.746Z,99899.03
2022-12-18T15:10:01.275Z,99900.03
2022-12-18T15:12:43.106Z,99900.91
2022-12-18T15:15:34.955Z,99904.47
2022-12-18T15:18:13.515Z,99913.19
2022-12-18T15:20:46.143Z,99916.75
2022-12-18T15:23:20.677Z,99915.22
2022-12-18T15:25:49.414Z,99911.13
2022-12-18T15:28:30.140Z,99908.66
2022-12-18T15:31:17.027Z,99911.25
2022-12-18T15:34:04.064Z,99908.75
2022-12-18T15:36:31.580Z,99907.19
2022-12-18T15:39:04.755Z,99912.25
2022-12-18T15:41:37.315Z,99918.28
2022-12-18T15:44:22.738Z,99915.81
2022-12-18T15:46:49.735Z,99924.38
2022-12-18T15:49:16.418Z,99911.84
2022-12-18T15:51:43.353Z,99922.88
2022-12-18T15:54:15.032Z,99918.78
2022-12-18T15:57:00.291Z,99918.03
2022-12-18T15:59:27.586Z,99917.31
2022-12-18T16:01:54.388Z,99932.44
2022-12-18T16:04:23.137Z,99926.50
2022-12-18T16:07:13.743Z,99919.78
2022-12-18T16:09:37.659Z,99928.34
2022-12-18T16:12:04.896Z,99929.28
2022-12-18T16:14:32.602Z,99930.91
2022-12-18T16:17:02.276Z,99939.34
2022-12-18T16:19:30.170Z,99933.47
2022-12-18T16:21:58.612Z,99942.81
2022-12-18T16:24:30.823Z,99943.75
2022-12-18T16:27:00.330Z,99961.50
2022-12-18T16:29:29.312Z,99950.59
2022-12-18T16:32:00.973Z,99957.44
2022-12-18T16:34:35.816Z,99963.34
2022-12-18T16:37:06.521Z,99959.97
2022-12-18T16:39:35.265Z,99954.06
2022-12-18T16:42:05.621Z,99962.53
2022-12-18T16:44:34.521Z,99962.53
2022-12-18T16:47:03.025Z,99962.53
2022-12-18T16:49:30.922Z,99965.19
2022-12-18T16:51:58.155Z,99957.59
2022-12-18T16:54:25.310Z,99958.53
2022-12-18T16:56:52.301Z,99959.31
2022-12-18T16:59:19.812Z,99948.28
2022-12-18T17:01:47.322Z,99956.75
2022-12-18T17:04:15.179Z,99948.38
2022-12-18T17:06:44.595Z,99956.03
2022-12-18T17:09:14.820Z,99961.06
2022-12-18T17:11:41.992Z,99961.06
2022-12-18T17:14:15.303Z,99965.28
2022-12-18T17:16:42.646Z,99965.28
2022-12-18T17:19:16.656Z,99978.94
2022-12-18T17:21:45.904Z,99985.75
2022-12-18T17:24:13.519Z,99982.41
2022-12-18T17:26:40.472Z,99984.06
2022-12-18T17:29:08.282Z,99978.94
2022-12-18T17:31:36.148Z,99987.41
2022-12-18T17:34:04.162Z,99984.06
2022-12-18T17:36:32.503Z,99981.53
2022-12-18T17:39:02.224Z,99983.22
2022-12-18T17:41:30.066Z,99979.88
2022-12-18T17:43:59.802Z,99978.22
2022-12-18T17:46:28.191Z,99982.47
2022-12-18T17:48:58.968Z,99980.78
2022-12-18T17:51:26.409Z,99977.41
2022-12-18T17:53:53.212Z,99979.94
2022-12-18T17:56:21.755Z,99977.44
2022-12-18T17:58:50.424Z,99967.28
2022-12-18T18:01:21.091Z,99971.50
2022-12-18T18:03:50.355Z,99976.59
2022-12-18T18:06:20.522Z,99973.19
2022-12-18T18:08:47.339Z,99973.19
2022-12-18T18:11:36.021Z,99980.81
2022-12-18T18:14:05.545Z,99978.31
2022-12-18T18:16:41.437Z,99985.09
2022-12-18T18:19:14.437Z,99980.03
2022-12-18T18:21:44.741Z,99996.94
2022-12-18T18:24:14.835Z,99996.94
2022-12-18T18:26:41.960Z,99996.94
2022-12-18T18:29:15.472Z,99995.28
2022-12-18T18:31:42.519Z,99998.69
2022-12-18T18:34:15.571Z,100006.31
2022-12-18T18:36:42.475Z,100008.06
2022-12-18T18:39:09.087Z,100011.47
2022-12-18T18:41:37.546Z,100013.16
2022-12-18T18:44:04.963Z,100003.03
2022-12-18T18:46:31.705Z,100005.53
2022-12-18T18:48:59.003Z,100003.03
2022-12-18T18:51:30.023Z,100019.91
2022-12-18T18:53:59.991Z,100015.69
2022-12-18T18:59:18.390Z,100008.09
2022-12-18T19:01:45.370Z,100012.34
2022-12-18T19:04:12.420Z,100015.72
2022-12-18T19:06:39.276Z,100021.63
2022-12-18T19:09:06.644Z,100008.97
2022-12-18T19:11:52.500Z,100004.72
2022-12-18T19:14:20.261Z,100007.22
2022-12-18T19:16:47.036Z,100009.81
2022-12-18T19:19:13.880Z,100018.28
2022-12-18T19:21:40.995Z,100027.59
2022-12-18T19:24:10.113Z,100026.72
2022-12-18T19:26:37.629Z,100025.03
2022-12-18T19:29:09.168Z,100020.84
2022-12-18T19:31:37.392Z,100033.50
2022-12-18T19:34:07.925Z,100027.59
2022-12-18T19:36:38.148Z,100044.53
2022-12-18T19:39:23.949Z,100042.00
2022-12-18T19:41:52.659Z,100048.75
2022-12-18T19:44:19.489Z,100048.75
2022-12-18T19:46:49.516Z,100052.97
2022-12-18T19:49:17.587Z,100061.47
2022-12-18T19:51:45.668Z,100056.38
2022-12-18T19:54:16.953Z,100061.47
2022-12-18T19:56:45.589Z,100049.59
2022-12-18T19:59:12.895Z,100060.63
2022-12-18T20:01:39.925Z,100058.06
2022-12-18T20:04:07.058Z,100064.00
2022-12-18T20:06:36.694Z,100066.53
2022-12-18T20:09:07.333Z,100063.97
2022-12-18T20:11:39.650Z,100067.38
2022-12-18T20:14:09.082Z,100059.75
2022-12-18T20:16:35.932Z,100061.47
2022-12-18T20:19:02.907Z,100061.44
2022-12-18T20:21:30.222Z,100074.97
2022-12-18T20:23:57.019Z,100069.03
2022-12-18T20:26:24.820Z,100059.75
2022-12-18T20:28:51.981Z,100058.91
2022-12-18T20:31:18.622Z,100060.59
2022-12-18T20:33:47.695Z,100065.69
2022-12-18T20:36:21.150Z,100065.69
2022-12-18T20:38:50.887Z,100059.75
2022-12-18T20:41:21.075Z,100069.06
2022-12-18T20:43:48.438Z,100071.63
2022-12-18T20:46:16.998Z,100084.28
2022-12-18T20:48:44.882Z,100096.97
2022-12-18T20:51:14.387Z,100103.78
2022-12-18T20:53:42.067Z,100091.06
2022-12-18T20:56:12.859Z,100085.97
2022-12-18T20:58:39.573Z,100084.31
2022-12-18T21:01:10.038Z,100090.22
2022-12-18T21:03:38.269Z,100081.75
2022-12-18T21:06:05.216Z,100095.28
2022-12-18T21:08:32.371Z,100102.06
2022-12-18T21:11:38.777Z,100105.44
2022-12-18T21:14:10.634Z,100115.59
2022-12-18T21:16:37.918Z,100103.75
2022-12-18T21:19:04.719Z,100090.19
2022-12-18T21:21:34.762Z,100097.81
2022-12-18T21:24:06.074Z,100085.13
2022-12-18T21:26:32.868Z,100078.34
2022-12-18T21:29:01.784Z,100074.13
2022-12-18T21:31:30.894Z,100080.09
2022-12-18T21:34:00.903Z,100079.22
2022-12-18T21:36:30.506Z,100080.06
2022-12-18T21:38:58.547Z,100068.22
2022-12-18T21:41:45.555Z,100082.59
2022-12-18T21:44:18.115Z,100078.34
2022-12-18T21:46:52.800Z,100080.06
2022-12-18T21:49:23.142Z,100078.38
2022-12-18T21:51:56.015Z,100079.19
2022-12-18T21:54:24.255Z,100080.06
2022-12-18T21:56:56.507Z,100071.59
2022-12-18T21:59:37.382Z,100086.00
2022-12-18T22:02:15.940Z,100091.06
2022-12-18T22:04:44.158Z,100088.50
2022-12-18T22:07:11.560Z,100085.13
2022-12-18T22:09:38.752Z,100087.66
2022-12-18T22:12:05.931Z,100096.09
2022-12-18T22:14:32.742Z,100084.25
2022-12-18T22:16:59.568Z,100099.50
2022-12-18T22:19:27.027Z,100096.97
2022-12-18T22:21:54.118Z,100108.81
2022-12-18T22:24:23.570Z,100111.34
2022-12-18T22:26:52.958Z,100124.88
2022-12-18T22:29:43.174Z,100123.19
2022-12-18T22:32:15.692Z,100121.44
2022-12-18T22:34:43.497Z,100125.69
2022-12-18T22:37:12.352Z,100137.56
2022-12-18T22:39:39.218Z,100137.56
2022-12-18T22:42:06.308Z,100129.97
2022-12-18T22:44:32.915Z,100120.63
2022-12-18T22:47:06.315Z,100128.25
2022-12-18T22:49:34.812Z,100109.63
2022-12-18T22:52:02.440Z,100113.84
2022-12-18T22:54:29.186Z,100123.16
2022-12-18T22:56:55.811Z,100117.22
2022-12-18T22:59:23.243Z,100113.88
2022-12-18T23:01:54.221Z,100108.81
2022-12-18T23:04:34.266Z,100100.34
2022-12-18T23:07:06.620Z,100102.88
2022-12-18T23:09:33.617Z,100092.72
2022-12-18T23:12:01.150Z,100102.03
2022-12-18T23:14:29.028Z,100093.59
2022-12-18T23:16:56.422Z,100089.34
2022-12-18T23:19:23.812Z,100095.28
2022-12-18T23:21:51.472Z,100091.06
2022-12-18T23:24:18.272Z,100090.22
2022-12-18T23:26:44.978Z,100093.59
2022-12-18T23:29:11.708Z,100091.03
2022-12-18T23:31:39.827Z,100094.44
2022-12-18T23:34:07.349Z,100091.06
2022-12-18T23:36:46.055Z,100088.50
2022-12-18T23:39:26.194Z,100097.00
2022-12-18T23:42:00.021Z,100088.50
2022-12-18T23:44:27.402Z,100080.91
2022-12-18T23:46:54.502Z,100083.44
2022-12-18T23:49:21.423Z,100086.84
2022-12-18T23:51:48.518Z,100077.53
2022-12-18T23:54:15.362Z,100071.59
2022-12-18T23:56:42.316Z,100060.59
2022-12-18T23:59:09.166Z,100066.53
